Time;durP1;ratioP1;P1;durP2;ratioP2;P2;SDS_P1;SDS_P2;PMS_P1;PMS_P2;Temp;Humidity;BMP_temperature;BMP_pressure;BME280_temperature;BME280_humidity;BME280_pressure;Samples;Min_cycle;Max_cycle;Signal;HPM_P1;HPM_P2
2022/10/13 00:00:36;;;;;;;;;;;;;;;;;;5008062;28;19959;-65
2022/10/13 00:03:02;;;;;;;;;;;;;;;;;;5012843;28;19996;-63
2022/10/13 00:05:28;;;;;;;;;;;;;;;;;;5013235;28;19917;-66
2022/10/13 00:07:54;;;;;;;;;;;;;;;;;;5012992;28;19964;-66
2022/10/13 00:10:19;;;;;;;;;;;;;;;;;;5012999;28;20282;-65
2022/10/13 00:12:45;;;;;;;;;;;;;;;;;;5012551;28;19909;-65
2022/10/13 00:15:11;;;;;;;;;;;;;;;;;;5029146;28;20285;-64
2022/10/13 00:17:37;;;;;;;;;;;;;;;;;;5031480;28;19909;-64
2022/10/13 00:20:03;;;;;;;;;;;;;;;;;;5019971;28;19914;-65
2022/10/13 00:22:29;;;;;;;;;;;;;;;;;;5012717;28;20382;-66
2022/10/13 00:24:55;;;;;;;;;;;;;;;;;;5013129;28;19924;-66
2022/10/13 00:27:21;;;;;;;;;;;;;;;;;;5011991;28;20511;-65
2022/10/13 00:29:47;;;;;;;;;;;;;;;;;;5025457;28;20008;-63
2022/10/13 00:32:13;;;;;;;;;;;;;;;;;;5012413;28;19941;-64
2022/10/13 00:34:39;;;;;;;;;;;;;;;;;;5012968;28;19972;-64
2022/10/13 00:37:04;;;;;;;;;;;;;;;;;;5012427;28;19926;-65
2022/10/13 00:39:30;;;;;;;;;;;;;;;;;;5015934;28;19919;-64
2022/10/13 00:41:57;;;;;;;;;;;;;;;;;;5020386;28;19909;-64
2022/10/13 00:44:23;;;;;;;;;;;;;;;;;;5011737;28;19917;-65
2022/10/13 00:46:49;;;;;;;;;;;;;;;;;;5011990;28;19922;-63
2022/10/13 00:49:14;;;;;;;;;;;;;;;;;;5012381;28;20710;-65
2022/10/13 00:51:40;;;;;;;;;;;;;;;;;;5010180;28;19986;-65
2022/10/13 00:54:06;;;;;;;;;;;;;;;;;;5012034;28;20389;-65
2022/10/13 00:56:32;;;;;;;;;;;;;;;;;;5009642;28;19916;-66
2022/10/13 00:58:58;;;;;;;;;;;;;;;;;;5012266;28;19909;-65
2022/10/13 01:01:24;;;;;;;;;;;;;;;;;;5012100;28;20383;-66
2022/10/13 01:03:50;;;;;;;;;;;;;;;;;;5014173;28;19910;-66
2022/10/13 01:06:16;;;;;;;;;;;;;;;;;;5030987;28;19925;-65
2022/10/13 01:08:42;;;;;;;;;;;;;;;;;;5017575;28;19921;-64
2022/10/13 01:11:08;;;;;;;;;;;;;;;;;;5012136;28;19913;-67
2022/10/13 01:13:34;;;;;;;;;;;;;;;;;;5025466;28;19909;-65
2022/10/13 01:16:00;;;;;;;;;;;;;;;;;;5010270;28;19909;-66
2022/10/13 01:18:25;;;;;;;;;;;;;;;;;;5011939;28;19919;-66
2022/10/13 01:20:51;;;;;;;;;;;;;;;;;;5011598;28;19917;-66
2022/10/13 01:23:17;;;;;;;;;;;;;;;;;;5012118;28;20032;-65
2022/10/13 01:25:43;;;;;;;;;;;;;;;;;;5011289;28;19924;-65
2022/10/13 01:28:09;;;;;;;;;;;;;;;;;;5007898;28;19913;-66
2022/10/13 01:30:35;;;;;;;;;;;;;;;;;;5011444;28;20683;-65
2022/10/13 01:33:01;;;;;;;;;;;;;;;;;;5012127;28;19910;-65
2022/10/13 01:35:27;;;;;;;;;;;;;;;;;;5010125;28;20302;-65
2022/10/13 01:37:52;;;;;;;;;;;;;;;;;;5011529;28;19976;-66
2022/10/13 01:40:18;;;;;;;;;;;;;;;;;;5016511;28;20393;-65
2022/10/13 01:42:44;;;;;;;;;;;;;;;;;;5030599;28;19916;-65
2022/10/13 01:45:10;;;;;;;;;;;;;;;;;;5028229;28;19909;-66
2022/10/13 01:47:36;;;;;;;;;;;;;;;;;;5019166;28;19909;-62
2022/10/13 01:50:02;;;;;;;;;;;;;;;;;;5011805;28;19913;-65
2022/10/13 01:52:28;;;;;;;;;;;;;;;;;;5020271;28;20286;-65
2022/10/13 01:54:54;;;;;;;;;;;;;;;;;;5030122;28;19909;-65
2022/10/13 01:57:20;;;;;;;;;;;;;;;;;;5029368;28;20664;-64
2022/10/13 01:59:45;;;;;;;;;;;;;;;;;;5028667;28;19909;-65
2022/10/13 02:02:11;;;;;;;;;;;;;;;;;;5034224;28;20040;-65
2022/10/13 02:04:37;;;;;;;;;;;;;;;;;;5028048;28;19986;-65
2022/10/13 02:07:03;;;;;;;;;;;;;;;;;;5033753;28;19940;-65
2022/10/13 02:09:29;;;;;;;;;;;;;;;;;;5034344;28;20437;-65
2022/10/13 02:11:55;;;;;;;;;;;;;;;;;;5030944;28;20388;-66
2022/10/13 02:14:21;;;;;;;;;;;;;;;;;;5034188;28;19909;-65
2022/10/13 02:16:47;;;;;;;;;;;;;;;;;;5032255;28;20271;-65
2022/10/13 02:19:13;;;;;;;;;;;;;;;;;;5014833;28;19976;-66
2022/10/13 02:21:40;;;;;;;;;;;;;;;;;;5015127;28;19917;-62
2022/10/13 02:24:06;;;;;;;;;;;;;;;;;;5014933;28;20397;-64
2022/10/13 02:26:32;;;;;;;;;;;;;;;;;;5014969;28;19921;-64
2022/10/13 02:28:58;;;;;;;;;;;;;;;;;;5014862;28;19909;-65
2022/10/13 02:31:23;;;;;;;;;;;;;;;;;;5028401;28;19949;-64
2022/10/13 02:33:49;;;;;;;;;;;;;;;;;;5032574;28;20377;-64
2022/10/13 02:36:15;;;;;;;;;;;;;;;;;;5016103;28;19909;-64
2022/10/13 02:38:41;;;;;;;;;;;;;;;;;;5013159;28;20366;-65
2022/10/13 02:41:07;;;;;;;;;;;;;;;;;;5031210;28;19913;-65
2022/10/13 02:43:36;;;;;;;;;;;;;;;;;;5032263;28;19909;-66
2022/10/13 02:46:01;;;;;;;;;;;;;;;;;;5033427;28;19924;-64
2022/10/13 02:48:27;;;;;;;;;;;;;;;;;;5031067;28;19909;-65
2022/10/13 02:50:53;;;;;;;;;;;;;;;;;;5033317;28;19999;-65
2022/10/13 02:53:19;;;;;;;;;;;;;;;;;;5030620;28;19916;-63
2022/10/13 02:55:45;;;;;;;;;;;;;;;;;;5023744;28;19927;-64
2022/10/13 02:58:11;;;;;;;;;;;;;;;;;;5014830;28;20885;-64
2022/10/13 03:00:38;;;;;;;;;;;;;;;;;;5014222;28;19910;-65
2022/10/13 03:03:04;;;;;;;;;;;;;;;;;;5014533;28;19971;-65
2022/10/13 03:05:30;;;;;;;;;;;;;;;;;;5014846;28;19910;-65
2022/10/13 03:07:56;;;;;;;;;;;;;;;;;;5013557;28;19910;-65
2022/10/13 03:10:22;;;;;;;;;;;;;;;;;;5013931;28;20369;-65
2022/10/13 03:12:47;;;;;;;;;;;;;;;;;;5014274;28;19914;-66
2022/10/13 03:15:13;;;;;;;;;;;;;;;;;;5014054;28;19955;-66
2022/10/13 03:17:39;;;;;;;;;;;;;;;;;;5014699;28;19909;-63
2022/10/13 03:20:05;;;;;;;;;;;;;;;;;;5013789;28;19936;-65
2022/10/13 03:22:31;;;;;;;;;;;;;;;;;;5013911;28;20376;-66
2022/10/13 03:24:57;;;;;;;;;;;;;;;;;;5013787;28;19967;-65
2022/10/13 03:27:23;;;;;;;;;;;;;;;;;;5028517;28;19964;-66
2022/10/13 03:29:49;;;;;;;;;;;;;;;;;;5027125;28;19968;-64
2022/10/13 03:32:15;;;;;;;;;;;;;;;;;;5013740;28;19921;-65
2022/10/13 03:34:41;;;;;;;;;;;;;;;;;;5013662;28;19917;-64
2022/10/13 03:37:07;;;;;;;;;;;;;;;;;;5013712;28;19922;-65
2022/10/13 03:39:33;;;;;;;;;;;;;;;;;;5016734;28;19921;-63
2022/10/13 03:41:59;;;;;;;;;;;;;;;;;;5031364;28;19913;-66
2022/10/13 03:44:25;;;;;;;;;;;;;;;;;;5030976;28;20378;-66
2022/10/13 03:46:51;;;;;;;;;;;;;;;;;;5032762;28;19928;-65
2022/10/13 03:49:17;;;;;;;;;;;;;;;;;;5029836;28;19909;-65
2022/10/13 03:51:43;;;;;;;;;;;;;;;;;;5029394;28;19909;-66
2022/10/13 03:54:09;;;;;;;;;;;;;;;;;;5031825;28;19920;-66
2022/10/13 03:56:36;;;;;;;;;;;;;;;;;;5028675;28;20281;-66
2022/10/13 03:59:03;;;;;;;;;;;;;;;;;;5030965;28;19913;-65
2022/10/13 04:01:29;;;;;;;;;;;;;;;;;;5028813;28;19921;-64
2022/10/13 04:03:55;;;;;;;;;;;;;;;;;;5026358;28;19917;-66
2022/10/13 04:06:21;;;;;;;;;;;;;;;;;;5032464;28;19917;-66
2022/10/13 04:08:47;;;;;;;;;;;;;;;;;;5024957;28;19955;-65
2022/10/13 04:11:13;;;;;;;;;;;;;;;;;;5029009;28;20409;-66
2022/10/13 04:13:39;;;;;;;;;;;;;;;;;;5013040;28;19941;-64
2022/10/13 04:16:05;;;;;;;;;;;;;;;;;;5012601;28;19910;-65
2022/10/13 04:18:31;;;;;;;;;;;;;;;;;;5011950;28;20431;-65
2022/10/13 04:20:57;;;;;;;;;;;;;;;;;;5013099;28;19914;-64
2022/10/13 04:23:23;;;;;;;;;;;;;;;;;;5012229;28;20000;-64
2022/10/13 04:25:48;;;;;;;;;;;;;;;;;;5012703;28;19940;-65
2022/10/13 04:28:14;;;;;;;;;;;;;;;;;;5012888;28;19909;-66
2022/10/13 04:30:40;;;;;;;;;;;;;;;;;;5013378;28;19913;-64
2022/10/13 04:33:06;;;;;;;;;;;;;;;;;;5012286;28;20358;-66
2022/10/13 04:35:32;;;;;;;;;;;;;;;;;;5012970;28;19910;-65
2022/10/13 04:37:58;;;;;;;;;;;;;;;;;;5030967;28;19976;-65
2022/10/13 04:40:24;;;;;;;;;;;;;;;;;;5025910;28;20330;-65
2022/10/13 04:42:50;;;;;;;;;;;;;;;;;;5031855;28;19957;-64
2022/10/13 04:45:16;;;;;;;;;;;;;;;;;;5030239;28;19913;-65
2022/10/13 04:47:42;;;;;;;;;;;;;;;;;;5029058;28;19921;-66
2022/10/13 04:50:08;;;;;;;;;;;;;;;;;;5030074;28;19960;-65
2022/10/13 04:52:33;;;;;;;;;;;;;;;;;;5028030;28;19909;-65
2022/10/13 04:54:59;;;;;;;;;;;;;;;;;;5030108;28;19909;-65
2022/10/13 04:57:25;;;;;;;;;;;;;;;;;;5028511;28;20003;-65
2022/10/13 04:59:51;;;;;;;;;;;;;;;;;;5031689;28;19979;-65
2022/10/13 05:02:17;;;;;;;;;;;;;;;;;;5030767;28;20489;-66
2022/10/13 05:04:43;;;;;;;;;;;;;;;;;;5031680;28;19916;-66
2022/10/13 05:07:09;;;;;;;;;;;;;;;;;;5030613;28;20275;-66
2022/10/13 05:09:35;;;;;;;;;;;;;;;;;;5031198;28;19936;-65
2022/10/13 05:12:01;;;;;;;;;;;;;;;;;;5030995;28;19928;-65
2022/10/13 05:14:26;;;;;;;;;;;;;;;;;;5029580;28;19910;-65
2022/10/13 05:16:52;;;;;;;;;;;;;;;;;;5031114;28;19919;-64
2022/10/13 05:19:19;;;;;;;;;;;;;;;;;;5030911;28;19909;-66
2022/10/13 05:21:45;;;;;;;;;;;;;;;;;;5030822;28;19909;-65
2022/10/13 05:24:12;;;;;;;;;;;;;;;;;;5030883;28;19913;-63
2022/10/13 05:26:38;;;;;;;;;;;;;;;;;;5029927;28;19944;-65
2022/10/13 05:29:04;;;;;;;;;;;;;;;;;;5011911;28;19949;-65
2022/10/13 05:31:30;;;;;;;;;;;;;;;;;;5011641;28;20290;-65
2022/10/13 05:33:56;;;;;;;;;;;;;;;;;;5011547;28;19917;-65
2022/10/13 05:36:21;;;;;;;;;;;;;;;;;;5009482;28;19921;-64
2022/10/13 05:38:47;;;;;;;;;;;;;;;;;;5018471;28;19992;-63
2022/10/13 05:41:13;;;;;;;;;;;;;;;;;;5030490;28;19971;-65
2022/10/13 05:43:39;;;;;;;;;;;;;;;;;;5030760;28;19913;-63
2022/10/13 05:46:05;;;;;;;;;;;;;;;;;;5022089;28;20487;-65
2022/10/13 05:48:31;;;;;;;;;;;;;;;;;;5022319;28;19913;-62
2022/10/13 05:50:57;;;;;;;;;;;;;;;;;;5030128;28;19956;-66
2022/10/13 05:53:23;;;;;;;;;;;;;;;;;;5030698;28;19935;-65
2022/10/13 05:55:49;;;;;;;;;;;;;;;;;;5018580;28;19917;-63
2022/10/13 05:58:15;;;;;;;;;;;;;;;;;;5011724;28;19914;-64
2022/10/13 06:00:41;;;;;;;;;;;;;;;;;;5011209;28;19910;-62
2022/10/13 06:03:07;;;;;;;;;;;;;;;;;;5011361;28;19917;-65
2022/10/13 06:05:33;;;;;;;;;;;;;;;;;;5022509;28;19948;-62
2022/10/13 06:07:58;;;;;;;;;;;;;;;;;;5020737;28;19956;-64
2022/10/13 06:10:24;;;;;;;;;;;;;;;;;;5008416;28;20406;-62
2022/10/13 06:12:50;;;;;;;;;;;;;;;;;;5011134;28;19921;-64
2022/10/13 06:15:16;;;;;;;;;;;;;;;;;;5011571;28;19917;-65
2022/10/13 06:17:42;;;;;;;;;;;;;;;;;;5025967;28;19917;-64
2022/10/13 06:20:08;;;;;;;;;;;;;;;;;;5027931;28;20000;-64
2022/10/13 06:22:34;;;;;;;;;;;;;;;;;;5030468;28;19909;-65
2022/10/13 06:25:00;;;;;;;;;;;;;;;;;;5027504;28;19913;-64
2022/10/13 06:27:26;;;;;;;;;;;;;;;;;;5026347;28;20028;-65
2022/10/13 06:29:51;;;;;;;;;;;;;;;;;;5029947;28;19909;-62
2022/10/13 06:32:17;;;;;;;;;;;;;;;;;;5015835;28;19920;-61
2022/10/13 06:34:43;;;;;;;;;;;;;;;;;;5007345;28;20426;-63
2022/10/13 06:37:09;;;;;;;;;;;;;;;;;;5009409;28;19968;-62
2022/10/13 06:39:35;;;;;;;;;;;;;;;;;;5011003;28;19920;-64
2022/10/13 06:42:01;;;;;;;;;;;;;;;;;;5030775;28;19913;-65
2022/10/13 06:44:27;;;;;;;;;;;;;;;;;;5033374;28;19909;-65
2022/10/13 06:46:53;;;;;;;;;;;;;;;;;;5033414;28;19926;-64
2022/10/13 06:49:19;;;;;;;;;;;;;;;;;;5027190;28;20004;-65
2022/10/13 06:51:45;;;;;;;;;;;;;;;;;;5014857;28;19910;-64
2022/10/13 06:54:11;;;;;;;;;;;;;;;;;;5014612;28;20263;-66
2022/10/13 06:56:37;;;;;;;;;;;;;;;;;;5014757;28;19909;-64
2022/10/13 06:59:03;;;;;;;;;;;;;;;;;;5014094;28;19909;-65
2022/10/13 07:01:29;;;;;;;;;;;;;;;;;;5013606;28;20363;-64
2022/10/13 07:03:55;;;;;;;;;;;;;;;;;;5011783;28;19910;-65
2022/10/13 07:06:21;;;;;;;;;;;;;;;;;;5010343;28;20008;-64
2022/10/13 07:08:47;;;;;;;;;;;;;;;;;;5014630;28;20698;-65
2022/10/13 07:11:13;;;;;;;;;;;;;;;;;;5009700;28;19921;-65
2022/10/13 07:13:38;;;;;;;;;;;;;;;;;;5014080;28;19920;-64
2022/10/13 07:16:04;;;;;;;;;;;;;;;;;;5014281;28;19913;-64
2022/10/13 07:18:30;;;;;;;;;;;;;;;;;;5008114;28;19964;-64
2022/10/13 07:20:56;;;;;;;;;;;;;;;;;;5014066;28;19909;-64
2022/10/13 07:23:22;;;;;;;;;;;;;;;;;;5014106;28;20367;-64
2022/10/13 07:25:48;;;;;;;;;;;;;;;;;;5012501;28;19933;-64
2022/10/13 07:28:14;;;;;;;;;;;;;;;;;;5013917;28;19916;-64
2022/10/13 07:30:40;;;;;;;;;;;;;;;;;;5014268;28;19909;-65
2022/10/13 07:33:06;;;;;;;;;;;;;;;;;;5013481;28;20004;-65
2022/10/13 07:35:32;;;;;;;;;;;;;;;;;;5013825;28;19917;-65
2022/10/13 07:37:58;;;;;;;;;;;;;;;;;;5009703;28;19922;-65
2022/10/13 07:40:24;;;;;;;;;;;;;;;;;;5020758;28;19959;-64
2022/10/13 07:42:49;;;;;;;;;;;;;;;;;;5008777;28;19910;-62
2022/10/13 07:45:15;;;;;;;;;;;;;;;;;;5013397;28;19937;-64
2022/10/13 07:47:41;;;;;;;;;;;;;;;;;;5013056;28;19925;-64
2022/10/13 07:50:08;;;;;;;;;;;;;;;;;;5013167;28;19920;-65
2022/10/13 07:52:34;;;;;;;;;;;;;;;;;;5013072;28;20420;-64
2022/10/13 07:54:59;;;;;;;;;;;;;;;;;;5011860;28;20000;-64
2022/10/13 07:57:26;;;;;;;;;;;;;;;;;;5013863;28;19909;-63
2022/10/13 07:59:52;;;;;;;;;;;;;;;;;;5011803;28;19909;-64
2022/10/13 08:02:17;;;;;;;;;;;;;;;;;;5012647;28;19909;-64
2022/10/13 08:04:43;;;;;;;;;;;;;;;;;;5013554;28;19910;-64
2022/10/13 08:07:10;;;;;;;;;;;;;;;;;;5012739;28;20042;-62
2022/10/13 08:09:36;;;;;;;;;;;;;;;;;;5013368;28;19914;-64
2022/10/13 08:12:02;;;;;;;;;;;;;;;;;;5016915;28;19932;-64
2022/10/13 08:14:28;;;;;;;;;;;;;;;;;;5031512;28;19909;-65
2022/10/13 08:16:54;;;;;;;;;;;;;;;;;;5031998;28;20008;-63
2022/10/13 08:19:20;;;;;;;;;;;;;;;;;;5030855;28;20335;-64
2022/10/13 08:21:46;;;;;;;;;;;;;;;;;;5031813;28;19917;-64
2022/10/13 08:24:12;;;;;;;;;;;;;;;;;;5030741;28;19916;-64
2022/10/13 08:26:38;;;;;;;;;;;;;;;;;;5031213;28;19921;-66
2022/10/13 08:29:04;;;;;;;;;;;;;;;;;;5028814;28;19909;-64
2022/10/13 08:31:30;;;;;;;;;;;;;;;;;;5028316;28;19975;-64
2022/10/13 08:33:56;;;;;;;;;;;;;;;;;;5031810;28;19920;-64
2022/10/13 08:36:22;;;;;;;;;;;;;;;;;;5016234;28;19917;-64
2022/10/13 08:38:48;;;;;;;;;;;;;;;;;;5013192;28;19933;-64
2022/10/13 08:41:14;;;;;;;;;;;;;;;;;;5026171;28;19996;-65
2022/10/13 08:43:39;;;;;;;;;;;;;;;;;;5024879;28;19991;-65
2022/10/13 08:46:05;;;;;;;;;;;;;;;;;;5031020;28;19924;-65
2022/10/13 08:48:31;;;;;;;;;;;;;;;;;;5012581;28;20367;-64
2022/10/13 08:50:57;;;;;;;;;;;;;;;;;;5012866;28;19996;-63
2022/10/13 08:53:23;;;;;;;;;;;;;;;;;;5012128;28;19952;-64
2022/10/13 08:55:49;;;;;;;;;;;;;;;;;;5012222;28;20357;-65
2022/10/13 08:58:15;;;;;;;;;;;;;;;;;;5011755;28;19913;-63
2022/10/13 09:00:41;;;;;;;;;;;;;;;;;;5012123;28;19945;-64
2022/10/13 09:03:07;;;;;;;;;;;;;;;;;;5012731;28;19919;-64
2022/10/13 09:05:32;;;;;;;;;;;;;;;;;;5011635;28;19932;-65
2022/10/13 09:07:58;;;;;;;;;;;;;;;;;;5011119;28;20422;-65
2022/10/13 09:10:24;;;;;;;;;;;;;;;;;;5012145;28;19940;-65
2022/10/13 09:12:50;;;;;;;;;;;;;;;;;;5011740;28;20020;-65
2022/10/13 09:15:17;;;;;;;;;;;;;;;;;;5022248;28;20006;-64
2022/10/13 09:17:43;;;;;;;;;;;;;;;;;;5014585;28;19913;-63
2022/10/13 09:20:08;;;;;;;;;;;;;;;;;;5011815;28;19913;-64
2022/10/13 09:22:34;;;;;;;;;;;;;;;;;;5012000;28;19913;-64
2022/10/13 09:25:00;;;;;;;;;;;;;;;;;;5012276;28;19910;-64
2022/10/13 09:27:26;;;;;;;;;;;;;;;;;;5010793;28;19983;-65
2022/10/13 09:29:52;;;;;;;;;;;;;;;;;;5011723;28;19913;-64
2022/10/13 09:32:18;;;;;;;;;;;;;;;;;;5011804;28;19914;-65
2022/10/13 09:34:44;;;;;;;;;;;;;;;;;;5011861;28;19910;-65
2022/10/13 09:37:10;;;;;;;;;;;;;;;;;;5011823;28;20008;-64
2022/10/13 09:39:36;;;;;;;;;;;;;;;;;;5018690;28;19914;-66
2022/10/13 09:42:01;;;;;;;;;;;;;;;;;;5030224;28;19974;-64
2022/10/13 09:44:27;;;;;;;;;;;;;;;;;;5031243;28;19909;-64
2022/10/13 09:46:53;;;;;;;;;;;;;;;;;;5030531;28;20286;-65
2022/10/13 09:49:19;;;;;;;;;;;;;;;;;;5031177;28;19909;-64
2022/10/13 09:51:45;;;;;;;;;;;;;;;;;;5030866;28;20284;-65
2022/10/13 09:54:11;;;;;;;;;;;;;;;;;;5030496;28;19909;-64
2022/10/13 09:56:37;;;;;;;;;;;;;;;;;;5030395;28;19956;-64
2022/10/13 09:59:03;;;;;;;;;;;;;;;;;;5030594;28;19909;-64
2022/10/13 10:01:29;;;;;;;;;;;;;;;;;;5030868;28;19916;-64
2022/10/13 10:03:55;;;;;;;;;;;;;;;;;;5030127;28;19959;-65
2022/10/13 10:06:20;;;;;;;;;;;;;;;;;;5030427;28;19918;-65
2022/10/13 10:08:48;;;;;;;;;;;;;;;;;;5027373;28;19921;-64
2022/10/13 10:11:14;;;;;;;;;;;;;;;;;;5011349;28;19914;-64
2022/10/13 10:13:40;;;;;;;;;;;;;;;;;;5011542;28;19909;-63
2022/10/13 10:16:06;;;;;;;;;;;;;;;;;;5025756;28;19949;-63
2022/10/13 10:18:32;;;;;;;;;;;;;;;;;;5019596;28;19914;-63
2022/10/13 10:20:58;;;;;;;;;;;;;;;;;;5010881;28;19917;-65
2022/10/13 10:23:24;;;;;;;;;;;;;;;;;;5016946;28;19909;-63
2022/10/13 10:25:49;;;;;;;;;;;;;;;;;;5024760;28;19913;-64
2022/10/13 10:28:15;;;;;;;;;;;;;;;;;;5018819;28;19913;-61
2022/10/13 10:30:41;;;;;;;;;;;;;;;;;;5013401;28;19910;-62
2022/10/13 10:33:07;;;;;;;;;;;;;;;;;;5015456;28;20012;-63
2022/10/13 10:35:33;;;;;;;;;;;;;;;;;;5017635;28;19914;-62
2022/10/13 10:37:59;;;;;;;;;;;;;;;;;;5007263;28;19921;-64
2022/10/13 10:40:25;;;;;;;;;;;;;;;;;;5017583;28;19920;-64
2022/10/13 10:42:51;;;;;;;;;;;;;;;;;;5013044;28;19909;-64
2022/10/13 10:45:17;;;;;;;;;;;;;;;;;;5013965;28;19918;-65
2022/10/13 10:47:43;;;;;;;;;;;;;;;;;;5012629;28;19944;-63
2022/10/13 10:50:08;;;;;;;;;;;;;;;;;;5012808;28;20032;-64
2022/10/13 10:52:34;;;;;;;;;;;;;;;;;;5011836;28;19962;-62
2022/10/13 10:55:00;;;;;;;;;;;;;;;;;;5012570;28;20401;-64
2022/10/13 10:57:26;;;;;;;;;;;;;;;;;;5013173;28;19945;-65
2022/10/13 10:59:52;;;;;;;;;;;;;;;;;;5012533;28;19909;-63
2022/10/13 11:02:18;;;;;;;;;;;;;;;;;;5013012;28;19910;-64
2022/10/13 11:04:44;;;;;;;;;;;;;;;;;;5012777;28;19960;-65
2022/10/13 11:07:09;;;;;;;;;;;;;;;;;;5013017;28;19926;-64
2022/10/13 11:09:35;;;;;;;;;;;;;;;;;;5012774;28;19914;-64
2022/10/13 11:12:01;;;;;;;;;;;;;;;;;;5012678;28;19914;-64
2022/10/13 11:14:27;;;;;;;;;;;;;;;;;;5008499;28;19973;-63
2022/10/13 11:16:53;;;;;;;;;;;;;;;;;;5009907;28;19917;-62
2022/10/13 11:19:19;;;;;;;;;;;;;;;;;;5009486;28;19914;-62
2022/10/13 11:21:45;;;;;;;;;;;;;;;;;;5006907;28;19987;-64
2022/10/13 11:24:11;;;;;;;;;;;;;;;;;;5011907;28;19995;-63
2022/10/13 11:26:37;;;;;;;;;;;;;;;;;;5012410;28;19922;-63
2022/10/13 11:29:02;;;;;;;;;;;;;;;;;;5011974;28;19924;-64
2022/10/13 11:31:28;;;;;;;;;;;;;;;;;;5012264;28;20009;-64
2022/10/13 11:33:54;;;;;;;;;;;;;;;;;;5019160;28;19948;-65
2022/10/13 11:36:20;;;;;;;;;;;;;;;;;;5018673;28;19929;-66
2022/10/13 11:38:46;;;;;;;;;;;;;;;;;;5020909;28;19914;-65
2022/10/13 11:41:12;;;;;;;;;;;;;;;;;;5012448;28;19910;-64
2022/10/13 11:43:38;;;;;;;;;;;;;;;;;;5012444;28;20578;-64
2022/10/13 11:46:04;;;;;;;;;;;;;;;;;;5016695;28;19928;-64
2022/10/13 11:48:30;;;;;;;;;;;;;;;;;;5030220;28;20035;-64
2022/10/13 11:50:55;;;;;;;;;;;;;;;;;;5009812;28;19993;-63
2022/10/13 11:53:22;;;;;;;;;;;;;;;;;;5011280;28;19917;-64
2022/10/13 11:55:47;;;;;;;;;;;;;;;;;;5020380;28;20386;-64
2022/10/13 11:58:14;;;;;;;;;;;;;;;;;;5018160;28;19956;-65
2022/10/13 12:00:40;;;;;;;;;;;;;;;;;;5008289;28;19936;-64
2022/10/13 12:03:06;;;;;;;;;;;;;;;;;;5005176;28;19917;-64
2022/10/13 12:05:32;;;;;;;;;;;;;;;;;;5017972;28;19910;-64
2022/10/13 12:07:58;;;;;;;;;;;;;;;;;;5010665;28;19968;-62
2022/10/13 12:10:24;;;;;;;;;;;;;;;;;;5011940;28;20499;-60
2022/10/13 12:12:50;;;;;;;;;;;;;;;;;;5011931;28;19914;-62
2022/10/13 12:15:16;;;;;;;;;;;;;;;;;;5011653;28;20131;-64
2022/10/13 12:17:42;;;;;;;;;;;;;;;;;;5007674;28;20351;-64
2022/10/13 12:20:08;;;;;;;;;;;;;;;;;;5005365;28;19913;-62
2022/10/13 12:22:34;;;;;;;;;;;;;;;;;;5020869;28;19916;-64
2022/10/13 12:25:00;;;;;;;;;;;;;;;;;;5020659;28;19953;-62
2022/10/13 12:27:26;;;;;;;;;;;;;;;;;;5012059;28;20031;-63
2022/10/13 12:29:52;;;;;;;;;;;;;;;;;;5013122;28;19916;-64
2022/10/13 12:32:18;;;;;;;;;;;;;;;;;;5011696;28;19909;-62
2022/10/13 12:34:44;;;;;;;;;;;;;;;;;;5011262;28;20058;-61
2022/10/13 12:37:10;;;;;;;;;;;;;;;;;;5011533;28;20019;-61
2022/10/13 12:39:36;;;;;;;;;;;;;;;;;;5016963;28;19913;-64
2022/10/13 12:42:02;;;;;;;;;;;;;;;;;;5010556;28;19910;-61
2022/10/13 12:44:28;;;;;;;;;;;;;;;;;;5011305;28;19916;-63
2022/10/13 12:46:55;;;;;;;;;;;;;;;;;;5025581;28;19921;-62
2022/10/13 12:49:21;;;;;;;;;;;;;;;;;;5026266;28;19920;-63
2022/10/13 12:51:47;;;;;;;;;;;;;;;;;;5010740;28;19918;-63
2022/10/13 12:54:13;;;;;;;;;;;;;;;;;;5011443;28;19910;-62
2022/10/13 12:56:39;;;;;;;;;;;;;;;;;;5016680;28;19909;-64
2022/10/13 12:59:05;;;;;;;;;;;;;;;;;;5011449;28;19919;-64
2022/10/13 13:01:31;;;;;;;;;;;;;;;;;;5010974;28;19977;-63
2022/10/13 13:03:57;;;;;;;;;;;;;;;;;;5023464;28;19913;-63
2022/10/13 13:06:22;;;;;;;;;;;;;;;;;;5023350;28;19924;-63
2022/10/13 13:08:48;;;;;;;;;;;;;;;;;;5029897;28;19913;-61
2022/10/13 13:11:14;;;;;;;;;;;;;;;;;;5024380;28;19909;-63
2022/10/13 13:13:40;;;;;;;;;;;;;;;;;;5011106;28;19913;-62
2022/10/13 13:16:06;;;;;;;;;;;;;;;;;;5015699;28;19913;-62
2022/10/13 13:18:35;;;;;;;;;;;;;;;;;;5022640;28;20004;-63
2022/10/13 13:21:01;;;;;;;;;;;;;;;;;;5010084;28;20371;-61
2022/10/13 13:23:32;;;;;;;;;;;;;;;;;;5010874;28;20020;-61
2022/10/13 13:25:58;;;;;;;;;;;;;;;;;;5009816;28;19913;-64
2022/10/13 13:28:24;;;;;;;;;;;;;;;;;;5004703;28;20425;-62
2022/10/13 13:30:50;;;;;;;;;;;;;;;;;;5007229;28;19910;-62
2022/10/13 13:33:16;;;;;;;;;;;;;;;;;;5007012;28;19913;-61
2022/10/13 13:35:42;;;;;;;;;;;;;;;;;;5011542;28;19916;-61
2022/10/13 13:38:08;;;;;;;;;;;;;;;;;;5006459;28;19925;-62
2022/10/13 13:40:34;;;;;;;;;;;;;;;;;;5005360;28;20297;-63
2022/10/13 13:42:59;;;;;;;;;;;;;;;;;;5004037;28;19949;-62
2022/10/13 13:45:25;;;;;;;;;;;;;;;;;;5023583;28;20293;-62
2022/10/13 13:47:51;;;;;;;;;;;;;;;;;;5006109;28;20029;-63
2022/10/13 13:50:17;;;;;;;;;;;;;;;;;;5007104;28;19924;-63
2022/10/13 13:52:43;;;;;;;;;;;;;;;;;;5014069;28;20404;-65
2022/10/13 13:55:09;;;;;;;;;;;;;;;;;;5012819;28;20012;-64
2022/10/13 13:57:35;;;;;;;;;;;;;;;;;;5014376;28;20398;-63
2022/10/13 14:00:01;;;;;;;;;;;;;;;;;;5011395;28;19909;-63
2022/10/13 14:02:27;;;;;;;;;;;;;;;;;;5007783;28;20594;-63
2022/10/13 14:04:52;;;;;;;;;;;;;;;;;;5012059;28;19909;-62
2022/10/13 14:07:18;;;;;;;;;;;;;;;;;;5007832;28;19925;-63
2022/10/13 14:09:44;;;;;;;;;;;;;;;;;;5008164;28;19956;-64
2022/10/13 14:12:10;;;;;;;;;;;;;;;;;;5008166;28;19957;-63
2022/10/13 14:14:36;;;;;;;;;;;;;;;;;;5010523;28;20369;-64
2022/10/13 14:17:02;;;;;;;;;;;;;;;;;;5007392;28;19945;-64
2022/10/13 14:19:28;;;;;;;;;;;;;;;;;;5009638;28;19924;-62
2022/10/13 14:21:54;;;;;;;;;;;;;;;;;;5009640;28;19909;-63
2022/10/13 14:24:20;;;;;;;;;;;;;;;;;;5032360;28;19956;-64
2022/10/13 14:26:46;;;;;;;;;;;;;;;;;;5029511;28;20013;-63
2022/10/13 14:29:12;;;;;;;;;;;;;;;;;;5030158;28;19913;-63
2022/10/13 14:31:38;;;;;;;;;;;;;;;;;;5026028;28;19909;-63
2022/10/13 14:34:04;;;;;;;;;;;;;;;;;;5012283;28;19910;-64
2022/10/13 14:36:30;;;;;;;;;;;;;;;;;;5013189;28;19965;-63
2022/10/13 14:38:56;;;;;;;;;;;;;;;;;;5017266;28;19921;-64
2022/10/13 14:41:22;;;;;;;;;;;;;;;;;;5013074;28;20280;-63
2022/10/13 14:43:47;;;;;;;;;;;;;;;;;;5012083;28;19910;-64
2022/10/13 14:46:13;;;;;;;;;;;;;;;;;;5010301;28;19921;-63
2022/10/13 14:48:39;;;;;;;;;;;;;;;;;;5012885;28;19953;-64
2022/10/13 14:51:05;;;;;;;;;;;;;;;;;;5013177;28;20113;-63
2022/10/13 14:53:31;;;;;;;;;;;;;;;;;;5012805;28;20008;-63
2022/10/13 14:55:57;;;;;;;;;;;;;;;;;;5010541;28;19960;-64
2022/10/13 14:58:23;;;;;;;;;;;;;;;;;;5007666;28;19910;-62
2022/10/13 15:00:49;;;;;;;;;;;;;;;;;;5011435;28;19917;-63
2022/10/13 15:03:14;;;;;;;;;;;;;;;;;;5007862;28;20696;-62
2022/10/13 15:05:40;;;;;;;;;;;;;;;;;;5026499;28;19910;-63
2022/10/13 15:08:06;;;;;;;;;;;;;;;;;;5024215;28;19957;-64
2022/10/13 15:10:32;;;;;;;;;;;;;;;;;;5025740;28;19910;-65
2022/10/13 15:12:58;;;;;;;;;;;;;;;;;;5030932;28;20634;-63
2022/10/13 15:15:24;;;;;;;;;;;;;;;;;;5012317;28;19916;-64
2022/10/13 15:17:50;;;;;;;;;;;;;;;;;;5012262;28;20386;-62
2022/10/13 15:20:16;;;;;;;;;;;;;;;;;;5007992;28;19917;-63
2022/10/13 15:22:42;;;;;;;;;;;;;;;;;;5011836;28;20004;-61
2022/10/13 15:25:09;;;;;;;;;;;;;;;;;;5005253;28;19921;-60
2022/10/13 15:27:35;;;;;;;;;;;;;;;;;;5018733;28;19923;-64
2022/10/13 15:30:01;;;;;;;;;;;;;;;;;;5012026;28;20000;-61
2022/10/13 15:32:26;;;;;;;;;;;;;;;;;;5012056;28;20367;-64
2022/10/13 15:34:53;;;;;;;;;;;;;;;;;;5011904;28;19910;-64
2022/10/13 15:37:19;;;;;;;;;;;;;;;;;;5020067;28;19921;-63
2022/10/13 15:39:45;;;;;;;;;;;;;;;;;;5028984;28;20043;-62
2022/10/13 15:42:11;;;;;;;;;;;;;;;;;;5016292;28;19921;-63
2022/10/13 15:44:36;;;;;;;;;;;;;;;;;;5011518;28;19920;-63
2022/10/13 15:47:02;;;;;;;;;;;;;;;;;;5013292;28;20370;-62
2022/10/13 15:49:28;;;;;;;;;;;;;;;;;;5011756;28;19920;-62
2022/10/13 15:51:54;;;;;;;;;;;;;;;;;;5013467;28;19917;-64
2022/10/13 15:54:20;;;;;;;;;;;;;;;;;;5012950;28;19964;-63
2022/10/13 15:56:46;;;;;;;;;;;;;;;;;;5007075;28;19940;-65
2022/10/13 15:59:12;;;;;;;;;;;;;;;;;;5012958;28;19910;-63
2022/10/13 16:01:38;;;;;;;;;;;;;;;;;;5008302;28;20263;-64
2022/10/13 16:04:03;;;;;;;;;;;;;;;;;;5018193;28;19913;-63
2022/10/13 16:06:29;;;;;;;;;;;;;;;;;;5031768;28;20329;-62
2022/10/13 16:08:55;;;;;;;;;;;;;;;;;;5021916;28;19915;-63
2022/10/13 16:11:21;;;;;;;;;;;;;;;;;;5010974;28;19932;-61
2022/10/13 16:13:47;;;;;;;;;;;;;;;;;;5010772;28;20389;-65
2022/10/13 16:16:13;;;;;;;;;;;;;;;;;;5025997;28;19913;-64
2022/10/13 16:18:39;;;;;;;;;;;;;;;;;;5031326;28;20380;-66
2022/10/13 16:21:05;;;;;;;;;;;;;;;;;;5031382;28;19909;-64
2022/10/13 16:23:31;;;;;;;;;;;;;;;;;;5031164;28;19909;-62
2022/10/13 16:25:57;;;;;;;;;;;;;;;;;;5015096;28;19913;-64
2022/10/13 16:28:23;;;;;;;;;;;;;;;;;;5012618;28;19913;-64
2022/10/13 16:30:48;;;;;;;;;;;;;;;;;;5011071;28;19921;-65
2022/10/13 16:33:14;;;;;;;;;;;;;;;;;;5022984;28;20019;-62
2022/10/13 16:35:40;;;;;;;;;;;;;;;;;;5031002;28;19913;-64